ESNU/UME METAR and TAF weather

Enter ICAO airport designator
Station Type Date Time Source
ESNU METAR 2018/07/21 13:20 UTC NOAA

ESNU 211320Z 06007KT 020V080 CAVOK 27/17 Q1005


Station Type Date Time Source
ESNU Decoded METAR 2018/07/21 13:20 UTC NOAA

Umea Flygplats, Sweden (ESNU) 63-48N 020-17E 14M
Jul 21, 2018 - 09:20 AM EDT / 2018.07.21 1320 UTC
Wind: from the ENE (060 degrees) at 8 MPH (7 KT) (direction variable):0
Visibility: greater than 7 mile(s):0
Temperature: 80 F (27 C)
Dew Point: 62 F (17 C)
Relative Humidity: 54%
Pressure (altimeter): 29.68 in. Hg (1005 hPa)
ob: ESNU 211320Z 06007KT 020V080 CAVOK 27/17 Q1005
cycle: 13

Station Type Date Time Source
ESNU TAF 2017/11/01 15:33 UTC NOAA

TAF TAF ESNU 011430Z 0115/0224 13005KT 9999 OVC004
TEMPO 0115/0124 OVC008


Example: see airport list